CST,Max TemperatureF,Mean TemperatureF,Min TemperatureF,Max Dew PointF,MeanDew PointF,Min DewpointF,Max Humidity, Mean Humidity, Min Humidity, Max Sea Level PressureIn, Mean Sea Level PressureIn, Min Sea Level PressureIn, Max VisibilityMiles, Mean VisibilityMiles, Min VisibilityMiles, Max Wind SpeedMPH, Mean Wind SpeedMPH, Max Gust SpeedMPH,PrecipitationIn, CloudCover, Events, WindDirDegrees
2013-11-1,46,41,35,41,38,33,96,83,70,29.83,29.60,29.36,10,10,8,15,8,18,0.02,8,Rain,295
2013-11-2,47,37,26,34,31,26,100,79,57,30.15,30.03,29.84,10,9,2,12,3,15,0.00,4,,298
2013-11-3,52,38,24,32,28,24,100,73,46,30.22,30.13,30.02,10,8,0,23,10,32,0.00,1,Fog,147
2013-11-4,47,39,31,45,38,30,100,79,58,30.17,30.02,29.92,10,6,0,21,10,26,0.20,5,Fog-Rain,177
2013-11-5,43,36,28,39,34,28,100,91,82,30.28,30.15,29.95,10,4,0,16,4,23,0.34,7,Fog-Rain-Snow,32
2013-11-6,42,35,28,34,28,22,100,72,43,30.17,30.02,29.91,10,9,4,18,10,24,0.08,5,Rain-Snow,320
2013-11-7,36,31,25,28,26,23,100,88,75,30.26,30.22,30.18,9,7,4,12,5,13,0.00,3,,243
2013-11-8,44,31,18,36,24,16,100,79,57,30.24,30.10,29.65,10,5,0,18,7,26,0.04,3,Fog-Rain,148
2013-11-9,46,42,37,41,33,25,89,72,54,30.14,29.86,29.61,10,10,10,29,15,38,0.00,8,,270
2013-11-10,46,41,35,31,27,24,70,60,49,30.33,30.22,30.10,10,10,10,18,9,26,T,6,Rain,268
2013-11-11,39,28,17,31,16,6,89,64,39,30.70,30.35,30.09,10,8,2,18,10,26,0.02,4,Snow,335
2013-11-12,28,20,11,12,9,6,84,63,42,30.80,30.69,30.53,10,10,10,13,7,17,0.00,0,,263
2013-11-13,48,33,17,28,21,11,80,61,42,30.49,30.14,29.91,10,10,10,25,11,37,0.00,0,,203
2013-11-14,43,36,28,33,29,25,100,80,59,29.89,29.84,29.80,10,8,1,9,6,,0.00,2,,208
2013-11-15,54,39,24,36,30,25,100,75,50,29.90,29.83,29.73,10,4,0,16,5,21,0.00,1,Fog,187
2013-11-16,55,49,43,52,42,33,100,83,65,29.72,29.47,29.27,10,8,2,22,11,30,0.17,7,Rain,161
2013-11-17,45,39,32,42,36,24,100,82,64,29.75,29.42,29.31,10,8,2,26,11,37,0.07,6,Rain,264
2013-11-18,33,26,18,24,19,15,91,77,63,30.30,30.09,29.77,10,10,10,26,12,36,0.00,6,,294
2013-11-19,40,27,13,22,19,13,92,68,44,30.34,30.21,30.06,10,10,10,21,9,31,0.00,2,,145
2013-11-20,42,38,33,33,28,20,96,69,41,30.08,30.03,30.00,10,6,1,24,11,30,0.31,8,Rain-Snow,151
2013-11-21,36,31,25,36,30,21,100,89,78,30.47,30.24,30.06,10,3,0,15,5,21,0.04,8,Fog-Snow,337
2013-11-22,29,23,16,21,15,7,88,67,46,30.58,30.51,30.43,10,8,2,18,9,28,0.03,3,Snow,296
2013-11-23,19,12,5,4,1,-1,76,62,47,30.81,30.74,30.58,10,10,10,20,8,26,T,2,,318
2013-11-24,26,14,1,12,4,-2,87,64,40,30.74,30.44,30.07,10,10,10,22,10,32,0.00,1,,194
2013-11-25,38,32,26,26,21,13,69,62,55,30.03,29.97,29.91,10,10,10,22,13,30,0.00,7,,250
2013-11-26,32,22,12,18,7,1,63,54,45,30.36,30.19,30.04,10,10,4,23,12,33,T,5,Snow,320
2013-11-27,24,15,6,10,7,3,88,67,46,30.38,30.28,30.14,10,10,10,12,4,15,T,4,,218
2013-11-28,29,20,11,12,10,8,80,63,46,30.55,30.31,30.12,10,10,10,13,5,17,T,6,,325
2013-11-29,30,18,6,19,12,3,92,73,53,30.59,30.46,30.24,10,10,8,16,7,21,0.00,2,,155
2013-11-30,39,30,20,26,23,19,92,73,54,30.20,30.10,30.04,10,10,10,10,4,13,0.00,3,,222